Accueil
METAR-TAF:

METAR-TAF

Aéroports :

Aéroport de Sion

Sion, Suisse

latitude: 46-13N, longitude: 007-20E, altitude: 482 m

Observation

Le bulletin a été fait il y a 38 minutes, à 15:20 UTC
Vent 12 kt de ouest
Température 24°C
Humidité 47%
Pression 1010 hPa
Visibilité 10 km ou plus
pas de nuages en-dessous de 1500 mètres et pas de cumulonimbus.

METAR: LSGS 161520Z AUTO 26012KT CAVOK 24/12 Q1010

Heure: 17:58 (15:58 UTC)

Prévision

Le bulletin a été fait il y a 1 heure et 33 minutes, à 14:25 UTC
Prévision valable du 16 à 15 UTC au 16 à 24 UTC
Vent 12 kt de ouest/sud-ouest
Visibilité 10 km ou plus
Nuages épars à une hauteur de 10000 ft
Evoluant progressivement
du 16 à 18 UTC au 16 à 20 UTC
Vent 2 kt de direction variable

TAF: LSGS 161425Z 1615/1624 25012KT 9999 SCT100 BECMG 1618/1620 VRB02KT

Observations et prévisions météorologiques de plus de 4000 aéroports (messages METAR et TAF).

Les stations disponibles sont représentées par des disques jaunes et rouges sur la carte.

Passer la souris dessus pour voir le nom de la station.

Cliquer dessus pour voir les observations et prévisions météorologiques.

Pour changer de carte: cliquez sur les boutons verts avec une croix noire pour zoomer, sur le bouton vert avec un tiret pour effectuer un zoom arrière, ou sur les flèches vertes pour les cartes adjacentes.


METAR-TAF: